Time;durP1;ratioP1;P1;durP2;ratioP2;P2;SDS_P1;SDS_P2;PMS_P1;PMS_P2;Temp;Humidity;BMP_temperature;BMP_pressure;BME280_temperature;BME280_humidity;BME280_pressure;Samples;Min_cycle;Max_cycle;Signal;HPM_P1;HPM_P2
2022/05/07 00:02:16;;;;;;;27.63;24.73;;;17.70;76.60;;;;;;5113529;28;20027;-65
2022/05/07 00:04:43;;;;;;;26.15;23.52;;;17.70;77.10;;;;;;5129790;27;20019;-65
2022/05/07 00:07:10;;;;;;;26.08;23.42;;;17.70;77.20;;;;;;5132077;27;20015;-65
2022/05/07 00:09:36;;;;;;;26.25;23.55;;;17.70;77.40;;;;;;5131572;27;20484;-64
2022/05/07 00:12:04;;;;;;;25.70;22.88;;;17.70;77.30;;;;;;5131131;27;20033;-64
2022/05/07 00:14:30;;;;;;;22.25;20.10;;;17.80;77.20;;;;;;5129340;27;20030;-64
2022/05/07 00:19:39;;;;;;;;;;;17.80;76.80;;;;;;5131322;27;20102;-65
2022/05/07 00:22:05;;;;;;;21.58;18.17;;;17.80;76.50;;;;;;5131697;28;20470;-65
2022/05/07 00:24:31;;;;;;;21.75;19.55;;;17.70;76.10;;;;;;5129177;27;20023;-64
2022/05/07 00:26:57;;;;;;;21.38;19.33;;;17.70;76.50;;;;;;5113549;28;20428;-65
2022/05/07 00:29:23;;;;;;;22.48;20.17;;;17.70;76.50;;;;;;5131342;28;20023;-67
2022/05/07 00:31:49;;;;;;;22.70;20.35;;;17.70;76.50;;;;;;5113749;28;20015;-63
2022/05/07 00:34:14;;;;;;;21.10;18.90;;;17.70;76.70;;;;;;5132196;27;20478;-63
2022/05/07 00:36:40;;;;;;;20.50;18.40;;;17.70;76.80;;;;;;5131556;28;20070;-64
2022/05/07 00:39:06;;;;;;;25.98;19.70;;;17.80;76.70;;;;;;5131835;28;20019;-63
2022/05/07 00:41:31;;;;;;;21.38;17.77;;;17.70;76.30;;;;;;5112962;28;20421;-63
2022/05/07 00:43:57;;;;;;;19.38;16.35;;;17.70;76.50;;;;;;5131706;28;20054;-64
2022/05/07 00:46:25;;;;;;;19.35;17.55;;;17.70;76.20;;;;;;5131679;28;20027;-67
2022/05/07 00:48:51;;;;;;;21.00;18.90;;;17.70;75.90;;;;;;5132141;28;20023;-63
2022/05/07 00:51:33;;;;;;;17.25;15.60;;;17.70;76.20;;;;;;5131945;27;20025;-64
2022/05/07 00:54:07;;;;;;;19.23;17.30;;;17.80;76.20;;;;;;5132067;28;20434;-64
2022/05/07 00:56:33;;;;;;;18.23;15.35;;;17.80;76.10;;;;;;5131662;28;20471;-64
2022/05/07 00:59:00;;;;;;;17.48;15.68;;;17.70;75.80;;;;;;5131813;28;20059;-64
2022/05/07 01:01:27;;;;;;;16.42;14.75;;;17.70;75.60;;;;;;5131237;27;20536;-66
2022/05/07 01:03:53;;;;;;;15.90;14.30;;;17.70;75.50;;;;;;5131650;28;20118;-64
2022/05/07 01:06:20;;;;;;;15.25;13.75;;;17.70;75.40;;;;;;5131722;27;20026;-63
2022/05/07 01:08:47;;;;;;;15.45;13.93;;;17.70;75.20;;;;;;5131387;28;20038;-64
2022/05/07 01:11:17;;;;;;;14.90;13.48;;;17.80;75.10;;;;;;5131950;28;20472;-66
2022/05/07 01:13:45;;;;;;;15.77;14.20;;;17.70;75.20;;;;;;5131691;27;20661;-64
2022/05/07 01:16:12;;;;;;;14.93;13.35;;;17.80;75.00;;;;;;5131973;28;20027;-64
2022/05/07 01:18:38;;;;;;;17.92;14.57;;;17.80;75.00;;;;;;5131318;28;20070;-63
2022/05/07 01:21:12;;;;;;;18.20;15.38;;;17.80;74.80;;;;;;5113441;28;20075;-62
2022/05/07 01:23:39;;;;;;;;;;;17.80;74.90;;;;;;5131889;27;20019;-63
2022/05/07 01:26:04;;;;;;;13.98;12.55;;;17.80;74.70;;;;;;5132006;28;19907;-63
2022/05/07 01:28:30;;;;;;;14.48;13.05;;;17.70;74.50;;;;;;5112452;28;20019;-63
2022/05/07 01:30:56;;;;;;;14.02;12.63;;;17.70;74.80;;;;;;5131776;28;20023;-63
2022/05/07 01:33:21;;;;;;;14.10;12.80;;;17.70;75.20;;;;;;5131922;28;20027;-63
2022/05/07 01:35:47;;;;;;;13.93;12.43;;;17.70;75.40;;;;;;5131292;27;20034;-63
2022/05/07 01:38:13;;;;;;;12.75;11.55;;;17.70;75.40;;;;;;5135314;27;20030;-63
2022/05/07 01:40:38;;;;;;;12.82;11.55;;;17.70;75.70;;;;;;5134654;27;20030;-64
2022/05/07 01:43:05;;;;;;;13.57;12.15;;;17.70;75.90;;;;;;5134790;27;20043;-64
2022/05/07 01:45:31;;;;;;;17.40;15.60;;;17.70;76.00;;;;;;5134376;27;20060;-64
2022/05/07 01:48:11;;;;;;;16.92;15.30;;;17.60;75.20;;;;;;5135576;27;20023;-63
2022/05/07 01:50:42;;;;;;;14.18;12.68;;;17.60;75.10;;;;;;5134413;27;20142;-63
2022/05/07 01:53:09;;;;;;;16.15;13.95;;;17.60;75.40;;;;;;5116365;27;20027;-63
2022/05/07 01:55:35;;;;;;;15.60;14.00;;;17.70;75.60;;;;;;5134641;27;20030;-63
2022/05/07 01:58:02;;;;;;;14.60;13.18;;;17.70;75.80;;;;;;5116773;27;20080;-63
2022/05/07 02:00:29;;;;;;;13.40;12.10;;;17.60;76.00;;;;;;5134922;27;20084;-67
2022/05/07 02:02:56;;;;;;;13.18;11.88;;;17.60;76.50;;;;;;5134774;27;20038;-64
2022/05/07 02:05:22;;;;;;;14.55;12.00;;;17.60;76.50;;;;;;5135256;27;20084;-63
2022/05/07 02:07:48;;;;;;;13.10;11.80;;;17.50;76.90;;;;;;5134342;27;20341;-64
2022/05/07 02:10:14;;;;;;;14.73;13.20;;;17.50;77.00;;;;;;5134931;27;20011;-63
2022/05/07 02:12:40;;;;;;;13.38;12.07;;;17.50;77.30;;;;;;5134343;27;20019;-64
2022/05/07 02:15:06;;;;;;;15.77;14.18;;;17.40;77.60;;;;;;5134603;27;20476;-64
2022/05/07 02:17:32;;;;;;;20.48;18.30;;;17.40;77.70;;;;;;5115454;27;20031;-67
2022/05/07 02:19:57;;;;;;;21.48;18.90;;;17.40;78.60;;;;;;5134608;27;20046;-64
2022/05/07 02:22:23;;;;;;;22.08;19.65;;;17.40;78.00;;;;;;5134551;27;20051;-64
2022/05/07 02:24:50;;;;;;;23.10;20.60;;;17.20;78.20;;;;;;5133928;27;20221;-64
2022/05/07 02:27:16;;;;;;;23.50;21.17;;;17.30;78.40;;;;;;5116057;27;20042;-63
2022/05/07 02:29:41;;;;;;;24.23;21.65;;;17.30;78.40;;;;;;5133886;27;20016;-66
2022/05/07 02:32:07;;;;;;;22.80;20.50;;;17.30;78.40;;;;;;5134010;27;20032;-64
2022/05/07 02:34:34;;;;;;;23.85;21.42;;;17.30;78.30;;;;;;5133847;27;20023;-68
2022/05/07 02:37:00;;;;;;;24.10;21.73;;;17.20;78.40;;;;;;5134430;27;20106;-64
2022/05/07 02:39:26;;;;;;;24.85;22.25;;;17.10;78.50;;;;;;5134218;27;20103;-64
2022/05/07 02:44:36;;;;;;;25.42;23.00;;;17.20;78.50;;;;;;5133142;27;20131;-64
2022/05/07 02:47:03;;;;;;;27.60;24.80;;;17.20;78.50;;;;;;5133939;27;20030;-64
2022/05/07 02:49:28;;;;;;;29.17;25.10;;;17.20;78.50;;;;;;5133264;27;20015;-64
2022/05/07 02:51:54;;;;;;;27.98;24.98;;;17.10;78.50;;;;;;5133154;27;20019;-65
2022/05/07 02:54:20;;;;;;;29.90;26.90;;;17.10;78.50;;;;;;5133951;27;20098;-64
2022/05/07 02:56:45;;;;;;;33.55;29.90;;;17.10;78.60;;;;;;5133309;27;20015;-65
2022/05/07 02:59:11;;;;;;;32.58;29.27;;;17.00;78.60;;;;;;5134054;27;20023;-64
2022/05/07 03:01:37;;;;;;;32.85;28.90;;;17.10;78.40;;;;;;5133059;27;20566;-64
2022/05/07 03:04:03;;;;;;;32.05;28.90;;;17.10;78.70;;;;;;5133408;27;20054;-64
2022/05/07 03:06:28;;;;;;;31.98;28.67;;;17.10;78.60;;;;;;5133725;27;20027;-64
2022/05/07 03:08:54;;;;;;;31.45;28.15;;;17.10;78.30;;;;;;5132928;27;20484;-65
2022/05/07 03:11:20;;;;;;;32.80;29.40;;;17.20;78.00;;;;;;5115195;27;20020;-66
2022/05/07 03:13:45;;;;;;;31.60;28.30;;;17.20;78.00;;;;;;5114453;27;20026;-64
2022/05/07 03:16:11;;;;;;;33.33;29.92;;;17.30;78.00;;;;;;5133549;27;20042;-64
2022/05/07 03:18:37;;;;;;;33.08;29.73;;;17.30;77.90;;;;;;5114531;27;20472;-67
2022/05/07 03:21:02;;;;;;;32.72;29.25;;;17.40;77.80;;;;;;5133135;27;20472;-64
2022/05/07 03:23:28;;;;;;;34.13;30.25;;;17.40;77.50;;;;;;5133399;27;20026;-64
2022/05/07 03:25:55;;;;;;;33.60;30.02;;;17.40;77.20;;;;;;5132594;27;20351;-64
2022/05/07 03:28:20;;;;;;;30.63;27.48;;;17.40;77.00;;;;;;5133383;27;20041;-64
2022/05/07 03:31:04;;;;;;;30.80;27.80;;;17.40;76.90;;;;;;5131522;27;20464;-64
2022/05/07 03:33:30;;;;;;;30.65;27.48;;;17.40;76.90;;;;;;5132209;27;20043;-64
2022/05/07 03:35:56;;;;;;;29.55;26.58;;;17.40;76.90;;;;;;5131435;27;20661;-64
2022/05/07 03:38:22;;;;;;;29.60;26.67;;;17.30;76.80;;;;;;5113817;27;20027;-63
2022/05/07 03:40:48;;;;;;;29.30;26.27;;;17.30;76.60;;;;;;5131481;27;20135;-63
2022/05/07 03:43:15;;;;;;;29.83;26.73;;;17.30;76.60;;;;;;5132447;27;20047;-63
2022/05/07 03:45:41;;;;;;;29.25;26.33;;;17.30;76.40;;;;;;5132170;27;20102;-64
2022/05/07 03:48:07;;;;;;;35.63;31.92;;;17.30;76.30;;;;;;5114174;27;20051;-63
2022/05/07 03:50:33;;;;;;;33.00;29.52;;;17.40;76.70;;;;;;5132597;27;20544;-64
2022/05/07 03:55:44;;;;;;;36.88;32.90;;;17.30;76.70;;;;;;5132586;27;20084;-63
2022/05/07 03:58:17;;;;;;;39.85;35.85;;;17.30;76.70;;;;;;5132503;27;20026;-63
2022/05/07 04:00:43;;;;;;;35.80;32.00;;;17.30;76.90;;;;;;5131855;27;20098;-64
2022/05/07 04:03:13;;;;;;;38.05;34.13;;;17.20;77.20;;;;;;5132249;27;20022;-63
2022/05/07 04:05:39;;;;;;;39.80;34.05;;;17.20;77.40;;;;;;5132249;27;20084;-68
2022/05/07 04:08:05;;;;;;;41.65;37.25;;;17.20;77.60;;;;;;5132555;27;20025;-63
2022/05/07 04:10:31;;;;;;;40.85;36.38;;;17.20;77.60;;;;;;5132305;27;20031;-63
2022/05/07 04:12:57;;;;;;;41.65;37.22;;;17.20;77.60;;;;;;5131846;27;20651;-65
2022/05/07 04:15:23;;;;;;;44.05;39.30;;;17.20;77.80;;;;;;5132596;27;20031;-63
2022/05/07 04:17:49;;;;;;;45.55;40.75;;;17.20;77.80;;;;;;5131813;27;20413;-63
2022/05/07 04:20:15;;;;;;;45.50;40.13;;;17.30;77.70;;;;;;5132378;27;20034;-64
2022/05/07 04:22:40;;;;;;;47.38;42.38;;;17.30;77.20;;;;;;5131940;27;20023;-67
2022/05/07 04:25:08;;;;;;;45.67;40.72;;;17.30;77.50;;;;;;5131883;28;20059;-62
2022/05/07 04:27:34;;;;;;;46.78;41.67;;;17.30;77.20;;;;;;5132435;27;20071;-64
2022/05/07 04:29:59;;;;;;;50.00;43.83;;;17.40;77.20;;;;;;5131661;28;20097;-63
2022/05/07 04:32:28;;;;;;;46.83;41.83;;;17.40;77.00;;;;;;5131681;27;20456;-63
2022/05/07 04:34:55;;;;;;;50.90;44.05;;;17.50;77.00;;;;;;5131908;28;20027;-63
2022/05/07 04:37:24;;;;;;;48.13;42.80;;;17.50;77.60;;;;;;5132279;27;20030;-65
2022/05/07 04:39:51;;;;;;;48.40;43.20;;;17.50;76.90;;;;;;5131720;28;20027;-63
2022/05/07 04:42:17;;;;;;;51.72;45.60;;;17.60;76.60;;;;;;5113475;28;20023;-63
2022/05/07 04:44:43;;;;;;;52.38;45.10;;;17.60;76.60;;;;;;5089417;28;20071;-68
2022/05/07 04:47:27;;;;;;;52.17;46.13;;;17.60;76.30;;;;;;5091011;28;20469;-63
2022/05/07 04:49:53;;;;;;;55.30;45.83;;;17.70;76.20;;;;;;5090412;28;20016;-63
2022/05/07 04:52:18;;;;;;;53.40;47.40;;;17.70;75.90;;;;;;5091467;28;20073;-63
2022/05/07 04:54:44;;;;;;;53.13;44.83;;;17.70;75.90;;;;;;5090424;28;20028;-66
2022/05/07 04:57:10;;;;;;;54.92;46.10;;;17.70;75.80;;;;;;5091617;28;20377;-63
2022/05/07 04:59:36;;;;;;;53.70;47.67;;;17.70;75.70;;;;;;5090713;28;20108;-63
2022/05/07 05:02:02;;;;;;;50.83;45.25;;;17.80;75.70;;;;;;5090652;28;20628;-63
2022/05/07 05:04:28;;;;;;;54.72;48.08;;;17.80;75.40;;;;;;5091349;28;20499;-63
2022/05/07 05:06:54;;;;;;;52.05;46.38;;;17.80;74.90;;;;;;5090588;28;20017;-64
2022/05/07 05:09:19;;;;;;;53.28;47.50;;;17.60;75.00;;;;;;5090953;28;20028;-63
2022/05/07 05:11:45;;;;;;;52.20;46.38;;;17.70;75.20;;;;;;5092045;28;20024;-66
2022/05/07 05:16:55;;;;;;;;;;;17.80;75.00;;;;;;5094501;28;20055;-64
2022/05/07 05:19:20;;;;;;;54.30;45.25;;;17.80;74.50;;;;;;5094045;28;19904;-64
2022/05/07 05:21:46;;;;;;;50.97;44.22;;;17.80;74.70;;;;;;5093410;28;20031;-68
2022/05/07 05:24:12;;;;;;;51.95;45.58;;;17.80;74.60;;;;;;5093716;28;20028;-62
2022/05/07 05:26:38;;;;;;;55.50;47.53;;;17.80;74.80;;;;;;5093021;28;20047;-63
2022/05/07 05:29:04;;;;;;;53.70;46.00;;;17.80;74.90;;;;;;5093218;28;20016;-61
2022/05/07 05:31:30;;;;;;;56.10;48.03;;;17.90;75.00;;;;;;5092206;28;20024;-63
2022/05/07 05:33:57;;;;;;;55.95;45.80;;;17.90;74.90;;;;;;5092523;28;20477;-64
2022/05/07 05:36:24;;;;;;;56.08;46.53;;;17.90;75.00;;;;;;5093653;28;20028;-63
2022/05/07 05:38:49;;;;;;;54.95;47.40;;;17.90;74.90;;;;;;5093089;28;20039;-63
2022/05/07 05:41:15;;;;;;;53.55;45.20;;;17.90;75.00;;;;;;5091645;28;20028;-65
2022/05/07 05:43:41;;;;;;;50.78;44.25;;;17.90;75.00;;;;;;5116730;27;20053;-63
2022/05/07 05:46:06;;;;;;;54.63;47.72;;;18.00;75.00;;;;;;5133701;27;20075;-63
2022/05/07 05:48:32;;;;;;;53.50;45.83;;;18.10;74.80;;;;;;5133908;27;20280;-63
2022/05/07 05:50:59;;;;;;;51.00;44.33;;;18.10;74.50;;;;;;5133945;27;20030;-62
2022/05/07 05:53:24;;;;;;;53.63;45.78;;;18.10;74.10;;;;;;5134755;27;20016;-63
2022/05/07 05:55:50;;;;;;;48.58;42.97;;;17.90;74.30;;;;;;5134080;27;20357;-65
2022/05/07 05:58:16;;;;;;;52.13;43.35;;;17.90;74.40;;;;;;5134451;27;20027;-62
2022/05/07 06:00:41;;;;;;;52.03;44.20;;;17.90;74.50;;;;;;5134437;27;20107;-63
2022/05/07 06:03:07;;;;;;;52.40;44.03;;;17.90;74.30;;;;;;5133396;27;20034;-62
2022/05/07 06:05:33;;;;;;;50.35;42.65;;;17.80;74.40;;;;;;5134277;27;20383;-62
2022/05/07 06:07:59;;;;;;;51.05;42.45;;;17.70;74.60;;;;;;5132796;27;20372;-63
2022/05/07 06:10:25;;;;;;;52.78;44.38;;;17.70;75.20;;;;;;5134202;27;20227;-62
2022/05/07 06:12:51;;;;;;;48.03;41.85;;;17.80;75.10;;;;;;5133514;27;20531;-67
2022/05/07 06:15:17;;;;;;;54.00;42.45;;;17.90;74.90;;;;;;5134306;27;20038;-65
2022/05/07 06:17:43;;;;;;;55.83;41.92;;;18.00;74.90;;;;;;5134325;27;20467;-63
2022/05/07 06:20:09;;;;;;;46.25;40.95;;;18.10;74.40;;;;;;5097724;27;20110;-62
2022/05/07 06:22:35;;;;;;;46.25;41.15;;;18.00;74.00;;;;;;5114211;27;20016;-65
2022/05/07 06:27:45;;;;;;;52.22;42.25;;;17.80;74.60;;;;;;5133763;27;20084;-66
2022/05/07 06:30:29;;;;;;;49.38;40.85;;;17.90;74.50;;;;;;5114629;27;20019;-64
2022/05/07 06:32:55;;;;;;;48.90;38.92;;;17.90;74.40;;;;;;5114221;27;20042;-62
2022/05/07 06:35:21;;;;;;;50.42;40.92;;;18.00;74.50;;;;;;5133065;27;20417;-63
2022/05/07 06:37:48;;;;;;;50.17;42.88;;;18.10;74.40;;;;;;5133206;27;20365;-64
2022/05/07 06:40:14;;;;;;;48.55;41.72;;;18.20;74.30;;;;;;5132718;27;20408;-62
2022/05/07 06:42:41;;;;;;;44.45;39.38;;;18.20;74.10;;;;;;5132867;27;20043;-62
2022/05/07 06:45:07;;;;;;;48.88;43.50;;;18.20;74.10;;;;;;5133175;27;20019;-64
2022/05/07 06:47:33;;;;;;;44.95;39.33;;;18.20;74.00;;;;;;5114405;27;20019;-63
2022/05/07 06:50:01;;;;;;;47.42;41.90;;;18.30;74.00;;;;;;5132959;27;20486;-64
2022/05/07 06:52:28;;;;;;;47.63;42.28;;;18.40;73.70;;;;;;5114936;27;20507;-65
2022/05/07 06:54:54;;;;;;;42.22;37.33;;;18.40;73.40;;;;;;5132458;27;20049;-64
2022/05/07 06:57:20;;;;;;;43.28;38.53;;;18.40;73.50;;;;;;5133415;27;20033;-64
2022/05/07 06:59:46;;;;;;;45.05;38.88;;;18.50;73.20;;;;;;5114329;27;20493;-65
2022/05/07 07:02:12;;;;;;;43.10;38.33;;;18.60;73.00;;;;;;5132113;27;20034;-63
2022/05/07 07:04:37;;;;;;;45.03;39.97;;;18.60;72.70;;;;;;5114003;27;20035;-68
2022/05/07 07:07:03;;;;;;;45.10;38.92;;;18.60;72.90;;;;;;5114365;27;20015;-64
2022/05/07 07:09:29;;;;;;;44.65;39.00;;;18.60;72.70;;;;;;5133169;27;20015;-64
2022/05/07 07:12:09;;;;;;;42.47;37.55;;;18.70;72.40;;;;;;5131738;27;20023;-63
2022/05/07 07:14:35;;;;;;;39.08;34.88;;;18.70;72.30;;;;;;5132776;27;20026;-63
2022/05/07 07:17:00;;;;;;;40.88;36.53;;;18.80;72.30;;;;;;5131898;27;20015;-62
2022/05/07 07:19:26;;;;;;;42.67;38.05;;;18.90;72.00;;;;;;5132808;27;20060;-63
2022/05/07 07:21:53;;;;;;;40.42;36.05;;;18.90;71.40;;;;;;5113929;27;20019;-69
2022/05/07 07:24:21;;;;;;;40.05;35.20;;;18.90;71.30;;;;;;5114370;27;20072;-65
2022/05/07 07:26:47;;;;;;;39.53;33.95;;;18.90;71.20;;;;;;5114477;27;20027;-63
2022/05/07 07:29:12;;;;;;;38.88;34.78;;;18.90;70.70;;;;;;5133835;27;20038;-64
2022/05/07 07:31:38;;;;;;;39.90;35.45;;;18.90;70.90;;;;;;5134021;27;20383;-65
2022/05/07 07:34:04;;;;;;;40.83;35.65;;;18.90;71.00;;;;;;5131260;27;20023;-63
2022/05/07 07:36:30;;;;;;;38.03;33.63;;;18.90;71.10;;;;;;5113572;27;20568;-63
2022/05/07 07:38:55;;;;;;;39.08;35.00;;;19.00;70.70;;;;;;5131854;27;20113;-64
2022/05/07 07:41:21;;;;;;;37.38;33.38;;;19.20;70.60;;;;;;5114259;27;20023;-63
2022/05/07 07:43:47;;;;;;;36.42;32.58;;;19.40;70.10;;;;;;5132240;27;20407;-63
2022/05/07 07:48:58;;;;;;;33.65;29.75;;;19.60;68.80;;;;;;5131878;27;20437;-63
2022/05/07 07:51:23;;;;;;;32.30;28.80;;;19.80;68.60;;;;;;5132381;27;20011;-64
2022/05/07 07:53:49;;;;;;;33.92;29.50;;;20.00;67.50;;;;;;5114190;27;20015;-64
2022/05/07 07:56:16;;;;;;;36.35;29.75;;;20.30;67.60;;;;;;5131930;27;20106;-64
2022/05/07 07:58:42;;;;;;;34.00;30.10;;;20.60;66.70;;;;;;5132283;27;20129;-64
2022/05/07 08:01:08;;;;;;;34.88;27.50;;;20.70;65.50;;;;;;5131463;27;20110;-67
2022/05/07 08:03:33;;;;;;;31.27;27.90;;;20.80;64.90;;;;;;5132138;27;20515;-66
2022/05/07 08:05:59;;;;;;;34.08;28.13;;;21.00;64.30;;;;;;5131766;27;20492;-66
2022/05/07 08:13:53;;;;;;;34.90;27.42;;;20.90;63.00;;;;;;5131925;27;20034;-70
2022/05/07 08:16:20;;;;;;;34.40;30.02;;;20.70;63.70;;;;;;5131712;27;20019;-66
2022/05/07 08:18:47;;;;;;;30.27;27.08;;;20.60;63.70;;;;;;5131961;27;20080;-66
2022/05/07 08:21:13;;;;;;;30.33;26.77;;;20.60;64.30;;;;;;5131433;27;20046;-64
2022/05/07 08:23:40;;;;;;;32.65;27.05;;;20.70;64.20;;;;;;5096347;28;20520;-65
2022/05/07 08:26:07;;;;;;;28.42;25.52;;;20.90;64.00;;;;;;5131299;27;20031;-65
2022/05/07 08:28:34;;;;;;;31.83;27.48;;;21.00;63.60;;;;;;5132175;27;20031;-64
2022/05/07 08:31:00;;;;;;;31.95;27.85;;;21.10;62.90;;;;;;5113183;28;20019;-65
2022/05/07 08:33:27;;;;;;;35.50;25.25;;;21.20;62.90;;;;;;5112203;28;20027;-65
2022/05/07 08:35:52;;;;;;;27.52;24.42;;;21.20;62.20;;;;;;5133058;28;20156;-64
2022/05/07 08:38:19;;;;;;;29.73;25.92;;;21.30;62.50;;;;;;5133042;27;20110;-64
2022/05/07 08:40:45;;;;;;;29.83;26.60;;;21.10;61.60;;;;;;5132460;27;20023;-66
2022/05/07 08:43:11;;;;;;;28.65;25.60;;;21.30;61.90;;;;;;5112391;28;20057;-63
2022/05/07 08:45:40;;;;;;;28.60;25.48;;;21.40;61.90;;;;;;5132342;27;20030;-65
2022/05/07 08:48:06;;;;;;;35.17;27.02;;;21.80;61.90;;;;;;5135512;27;20058;-67
2022/05/07 08:53:16;;;;;;;29.08;25.05;;;22.80;58.50;;;;;;5135723;27;20669;-63
2022/05/07 08:55:42;;;;;;;27.15;23.50;;;23.20;57.20;;;;;;5136029;27;20030;-64
2022/05/07 08:58:08;;;;;;;27.15;24.10;;;23.30;57.00;;;;;;5135110;27;20379;-66
2022/05/07 09:00:34;;;;;;;54.55;25.70;;;23.40;55.40;;;;;;5135680;27;20027;-65
2022/05/07 09:03:01;;;;;;;29.67;24.48;;;23.40;55.80;;;;;;5099632;27;20118;-70
2022/05/07 09:05:41;;;;;;;27.83;24.92;;;23.50;55.90;;;;;;5135169;27;20019;-63
2022/05/07 09:08:07;;;;;;;27.80;24.77;;;23.70;54.80;;;;;;5134896;27;20148;-68
2022/05/07 09:10:35;;;;;;;27.67;24.77;;;23.80;55.50;;;;;;5135429;27;20094;-66
2022/05/07 09:13:33;;;;;;;34.35;24.40;;;23.60;55.10;;;;;;5134478;27;20518;-71
2022/05/07 09:16:00;;;;;;;27.50;24.33;;;23.80;54.70;;;;;;5030860;28;20053;-72
2022/05/07 09:18:28;;;;;;;25.63;22.38;;;23.80;54.40;;;;;;5032004;28;20029;-67
2022/05/07 09:21:17;;;;;;;27.95;24.98;;;23.90;54.50;;;;;;5032141;28;20040;-67
2022/05/07 09:24:00;;;;;;;32.20;23.30;;;24.10;53.60;;;;;;5032242;28;20029;-67
2022/05/07 09:26:28;;;;;;;25.73;22.70;;;24.30;53.30;;;;;;5015308;28;20033;-68
2022/05/07 09:28:54;;;;;;;24.98;22.48;;;24.40;53.20;;;;;;5032161;28;20029;-66
2022/05/07 09:31:23;;;;;;;29.30;22.45;;;24.60;52.70;;;;;;5013663;28;20089;-63
2022/05/07 09:33:48;;;;;;;29.13;23.50;;;24.60;52.20;;;;;;5014577;28;20052;-64
2022/05/07 09:36:14;;;;;;;29.45;26.45;;;24.50;52.30;;;;;;5030814;28;20116;-67
2022/05/07 09:38:40;;;;;;;26.48;21.75;;;24.50;52.30;;;;;;5014598;28;20518;-65
2022/05/07 09:41:07;;;;;;;30.73;22.38;;;24.50;52.30;;;;;;5014095;28;20037;-66
2022/05/07 09:43:33;;;;;;;27.77;19.98;;;24.60;52.30;;;;;;5031023;28;20498;-67
2022/05/07 09:45:59;;;;;;;34.95;26.98;;;24.40;52.30;;;;;;5030673;28;20113;-64
2022/05/07 09:48:25;;;;;;;27.52;23.33;;;24.40;52.10;;;;;;5030503;28;20123;-65
2022/05/07 09:50:51;;;;;;;23.05;20.55;;;24.30;52.70;;;;;;5031734;28;20034;-65
2022/05/07 09:58:51;;;;;;;24.90;22.08;;;24.00;52.50;;;;;;5134840;27;20049;-66
2022/05/07 10:01:37;;;;;;;22.90;18.67;;;23.70;53.00;;;;;;5133687;27;20096;-66
2022/05/07 10:04:25;;;;;;;23.65;21.10;;;23.60;53.80;;;;;;5133497;27;20110;-71
2022/05/07 10:07:21;;;;;;;22.85;20.55;;;23.70;53.60;;;;;;5115470;27;20055;-67
2022/05/07 10:10:11;;;;;;;21.77;19.48;;;23.50;53.00;;;;;;5133695;27;20023;-64
2022/05/07 10:12:38;;;;;;;22.30;19.60;;;23.10;53.70;;;;;;5133690;27;20015;-65
2022/05/07 10:15:09;;;;;;;24.30;21.83;;;23.00;54.30;;;;;;5132414;27;20468;-69
2022/05/07 10:17:35;;;;;;;32.78;29.27;;;23.10;54.60;;;;;;5133052;27;20030;-66
2022/05/07 10:20:09;;;;;;;23.95;21.05;;;22.90;54.80;;;;;;5114537;27;20031;-66
2022/05/07 10:22:36;;;;;;;20.15;18.00;;;22.70;55.10;;;;;;5133291;27;20026;-66
2022/05/07 10:25:05;;;;;;;36.22;30.08;;;22.50;55.60;;;;;;5133200;27;20458;-71
2022/05/07 10:27:37;;;;;;;21.10;18.55;;;22.30;56.00;;;;;;5132573;27;20019;-67
2022/05/07 10:30:09;;;;;;;23.58;20.42;;;22.20;56.50;;;;;;5133162;27;20016;-69
2022/05/07 10:32:57;;;;;;;31.08;26.60;;;22.20;56.90;;;;;;5114225;27;20023;-68
2022/05/07 10:35:42;;;;;;;31.73;26.08;;;22.20;57.60;;;;;;5113278;27;20019;-66
2022/05/07 10:38:25;;;;;;;21.40;18.50;;;22.40;57.60;;;;;;5133871;27;20023;-66
2022/05/07 10:40:59;;;;;;;19.80;17.70;;;22.70;57.40;;;;;;5134594;27;20123;-67
2022/05/07 10:43:53;;;;;;;19.48;17.17;;;22.70;55.70;;;;;;5132702;27;20347;-65
2022/05/07 10:46:22;;;;;;;17.85;16.13;;;22.70;55.80;;;;;;5117950;27;20035;-67
2022/05/07 10:49:07;;;;;;;24.83;21.33;;;22.90;55.90;;;;;;5114355;27;20054;-66
2022/05/07 10:51:37;;;;;;;25.23;20.70;;;23.00;55.10;;;;;;5113544;27;20019;-70
2022/05/07 10:54:18;;;;;;;23.30;18.02;;;23.10;54.90;;;;;;5114124;27;20178;-73
2022/05/07 10:56:55;;;;;;;18.30;16.38;;;23.40;54.80;;;;;;5114581;27;20543;-66
2022/05/07 10:59:22;;;;;;;23.63;17.75;;;23.60;54.30;;;;;;5113377;27;20030;-65
2022/05/07 11:01:48;;;;;;;19.10;15.93;;;23.70;54.30;;;;;;5132059;27;20051;-66
2022/05/07 11:04:19;;;;;;;29.33;23.38;;;23.90;53.70;;;;;;5131173;27;20050;-63
2022/05/07 11:06:53;;;;;;;18.80;15.60;;;24.10;53.40;;;;;;5129272;27;20023;-64
2022/05/07 11:09:24;;;;;;;24.45;14.95;;;24.30;52.80;;;;;;5127733;27;20109;-67
2022/05/07 11:11:54;;;;;;;17.05;15.05;;;24.40;52.10;;;;;;5129118;27;20079;-66
2022/05/07 11:14:35;;;;;;;23.65;17.90;;;24.30;51.70;;;;;;5111505;27;20024;-70
2022/05/07 11:17:04;;;;;;;15.55;13.63;;;24.40;51.20;;;;;;5112475;27;20110;-66
2022/05/07 11:19:33;;;;;;;16.38;14.20;;;24.50;51.10;;;;;;5131361;27;20031;-64
2022/05/07 11:21:59;;;;;;;15.35;13.38;;;24.60;51.00;;;;;;5131891;27;20022;-64
2022/05/07 11:24:26;;;;;;;15.93;13.70;;;24.60;51.00;;;;;;5112950;27;20030;-64
2022/05/07 11:26:57;;;;;;;14.98;13.52;;;24.60;50.50;;;;;;5113193;27;20034;-64
2022/05/07 11:29:25;;;;;;;16.70;15.00;;;24.50;50.70;;;;;;5130793;27;20092;-65
2022/05/07 11:32:04;;;;;;;15.93;14.23;;;24.60;50.90;;;;;;5112042;27;20106;-62
2022/05/07 11:34:31;;;;;;;21.35;13.95;;;24.60;50.70;;;;;;5131521;27;20491;-66
2022/05/07 11:37:15;;;;;;;31.25;24.13;;;24.70;50.50;;;;;;5131162;27;20556;-65
2022/05/07 11:39:54;;;;;;;21.85;17.42;;;24.70;50.30;;;;;;5113183;27;20019;-63
2022/05/07 11:42:30;;;;;;;16.83;13.82;;;24.80;50.00;;;;;;5111057;27;20043;-64
2022/05/07 11:47:58;;;;;;;14.18;12.45;;;24.50;50.40;;;;;;5116823;27;20095;-62
2022/05/07 11:50:40;;;;;;;17.27;11.93;;;24.60;49.90;;;;;;5130742;27;20076;-63
2022/05/07 11:53:11;;;;;;;13.05;11.65;;;24.60;49.80;;;;;;5130885;27;20086;-72
2022/05/07 11:55:37;;;;;;;14.40;12.63;;;24.70;49.60;;;;;;5131219;27;20023;-63
2022/05/07 11:58:18;;;;;;;20.92;16.20;;;24.80;49.70;;;;;;5131027;27;20035;-65
2022/05/07 12:00:49;;;;;;;16.60;12.45;;;24.80;49.60;;;;;;5112427;27;20020;-63
2022/05/07 12:03:20;;;;;;;37.92;28.00;;;24.80;49.20;;;;;;5111838;27;20023;-63
2022/05/07 12:05:51;;;;;;;33.25;26.77;;;24.70;49.20;;;;;;5112099;27;20111;-63
2022/05/07 12:08:29;;;;;;;19.92;17.75;;;24.60;49.40;;;;;;5130194;27;20091;-63
2022/05/07 12:10:55;;;;;;;17.83;13.20;;;24.30;49.80;;;;;;5130675;27;20115;-63
2022/05/07 12:13:24;;;;;;;15.82;12.77;;;24.30;50.50;;;;;;5111638;27;20104;-63
2022/05/07 12:18:36;;;;;;;15.43;11.93;;;24.50;49.60;;;;;;5130959;27;20494;-67
2022/05/07 12:21:02;;;;;;;15.82;12.85;;;24.40;49.50;;;;;;5112187;28;20027;-63
2022/05/07 12:31:29;;;;;;;16.50;12.60;;;24.60;49.60;;;;;;5129688;28;20027;-67
2022/05/07 12:33:55;;;;;;;33.80;28.02;;;24.50;49.30;;;;;;5112132;28;20095;-63
2022/05/07 12:36:21;;;;;;;15.23;13.43;;;24.50;50.30;;;;;;5130081;27;20027;-64
2022/05/07 12:38:46;;;;;;;19.38;14.60;;;24.50;49.70;;;;;;5130342;28;20034;-63
2022/05/07 12:41:12;;;;;;;22.42;15.57;;;24.40;49.80;;;;;;5129692;28;20028;-63
2022/05/07 12:43:39;;;;;;;24.88;16.60;;;24.40;50.10;;;;;;5130247;27;20195;-63
2022/05/07 12:46:05;;;;;;;15.27;11.80;;;24.40;49.80;;;;;;5111659;28;20066;-70
2022/05/07 12:48:32;;;;;;;17.75;14.38;;;24.40;50.00;;;;;;5094435;28;20080;-67
2022/05/07 12:50:58;;;;;;;23.85;11.35;;;24.40;49.80;;;;;;5130198;27;20102;-63
2022/05/07 12:53:24;;;;;;;12.38;10.25;;;24.40;49.70;;;;;;5111216;28;20015;-65
2022/05/07 12:55:50;;;;;;;14.23;11.95;;;24.40;50.00;;;;;;5111763;28;20039;-63
2022/05/07 12:58:16;;;;;;;18.77;16.58;;;24.60;49.70;;;;;;5111147;28;20126;-62
2022/05/07 13:00:42;;;;;;;71.78;58.22;;;24.60;49.70;;;;;;5111673;28;20047;-65
2022/05/07 13:03:09;;;;;;;26.58;21.17;;;24.40;50.00;;;;;;5129931;27;20118;-62
2022/05/07 13:05:38;;;;;;;22.85;20.40;;;24.40;50.60;;;;;;5130046;28;20065;-66
2022/05/07 13:08:05;;;;;;;17.42;15.63;;;24.40;50.30;;;;;;5129899;27;20504;-63
2022/05/07 13:10:32;;;;;;;15.88;13.98;;;24.50;50.40;;;;;;5130027;28;20064;-64
2022/05/07 13:13:01;;;;;;;19.05;15.82;;;24.40;50.70;;;;;;5129354;28;20027;-62
2022/05/07 13:15:28;;;;;;;21.27;15.25;;;24.30;50.20;;;;;;5130303;27;20122;-62
2022/05/07 13:17:59;;;;;;;16.73;14.55;;;24.20;51.00;;;;;;5129340;28;20480;-63